createdAt,value
2022-07-29T00:02:47.610Z,49.58
2022-07-29T00:05:49.598Z,49.60
2022-07-29T00:08:51.452Z,49.74
2022-07-29T00:15:09.866Z,50.62
2022-07-29T00:18:11.903Z,50.79
2022-07-29T00:21:13.957Z,51.14
2022-07-29T00:24:16.236Z,51.20
2022-07-29T00:27:21.038Z,51.29
2022-07-29T00:30:24.158Z,51.51
2022-07-29T00:33:26.016Z,51.27
2022-07-29T00:36:27.995Z,51.46
2022-07-29T00:39:30.398Z,51.84
2022-07-29T00:42:32.384Z,52.22
2022-07-29T00:45:34.555Z,51.79
2022-07-29T00:48:36.665Z,51.99
2022-07-29T00:51:40.230Z,51.79
2022-07-29T00:54:44.450Z,52.34
2022-07-29T00:57:47.245Z,51.91
2022-07-29T01:00:50.100Z,51.95
2022-07-29T01:03:51.985Z,52.41
2022-07-29T01:06:55.511Z,52.64
2022-07-29T01:10:00.099Z,52.73
2022-07-29T01:13:03.229Z,52.82
2022-07-29T01:16:19.274Z,52.56
2022-07-29T01:19:40.274Z,53.35
2022-07-29T01:23:01.033Z,53.41
2022-07-29T01:26:31.317Z,53.72
2022-07-29T01:29:42.425Z,53.39
2022-07-29T01:32:51.428Z,53.13
2022-07-29T01:35:53.432Z,53.48
2022-07-29T01:39:10.029Z,53.81
2022-07-29T01:42:22.095Z,54.58
2022-07-29T01:45:46.316Z,54.56
2022-07-29T01:49:02.696Z,54.42
2022-07-29T01:52:14.350Z,55.00
2022-07-29T01:55:26.200Z,55.63
2022-07-29T01:58:30.491Z,56.34
2022-07-29T02:01:34.190Z,56.22
2022-07-29T02:04:37.728Z,55.58
2022-07-29T02:07:43.367Z,57.13
2022-07-29T02:10:46.785Z,59.52
2022-07-29T02:13:51.548Z,61.36
2022-07-29T02:17:04.326Z,61.20
2022-07-29T02:20:07.454Z,61.79
2022-07-29T02:23:12.790Z,62.06
2022-07-29T02:26:15.559Z,62.42
2022-07-29T02:29:19.892Z,62.45
2022-07-29T02:32:23.840Z,63.69
2022-07-29T02:35:26.952Z,63.72
2022-07-29T02:38:48.497Z,63.01
2022-07-29T02:42:08.303Z,63.26
2022-07-29T02:45:10.968Z,64.08
2022-07-29T02:48:17.567Z,63.87
2022-07-29T02:51:41.435Z,64.23
2022-07-29T02:55:17.989Z,63.66
2022-07-29T02:58:30.363Z,62.86
2022-07-29T03:01:36.605Z,63.74
2022-07-29T03:04:42.835Z,63.98
2022-07-29T03:07:47.640Z,63.92
2022-07-29T03:10:53.195Z,63.94
2022-07-29T03:13:55.911Z,64.98
2022-07-29T03:16:58.789Z,65.43
2022-07-29T03:20:01.123Z,64.77
2022-07-29T03:23:03.269Z,65.64
2022-07-29T03:26:05.186Z,65.71
2022-07-29T03:29:07.115Z,65.91
2022-07-29T03:32:09.500Z,63.79
2022-07-29T03:35:12.537Z,62.71
2022-07-29T03:38:14.439Z,61.77
2022-07-29T03:41:17.942Z,61.08
2022-07-29T03:44:27.201Z,60.76
2022-07-29T03:47:36.834Z,60.74
2022-07-29T03:50:53.386Z,61.07
2022-07-29T03:53:55.312Z,62.82
2022-07-29T03:57:01.111Z,63.45
2022-07-29T04:00:05.941Z,61.96
2022-07-29T04:03:11.666Z,62.47
2022-07-29T04:06:14.076Z,63.22
2022-07-29T04:09:16.129Z,64.05
2022-07-29T04:12:17.945Z,63.81
2022-07-29T04:15:20.200Z,64.49
2022-07-29T04:18:22.104Z,66.04
2022-07-29T04:21:24.132Z,66.12
2022-07-29T04:24:26.259Z,66.12
2022-07-29T04:27:28.340Z,65.34
2022-07-29T04:30:31.852Z,63.78
2022-07-29T04:33:33.725Z,62.55
2022-07-29T04:36:35.862Z,62.37
2022-07-29T04:39:37.731Z,61.17
2022-07-29T04:42:46.793Z,62.39
2022-07-29T04:45:49.614Z,63.04
2022-07-29T04:48:51.547Z,64.20
2022-07-29T04:51:54.593Z,62.50
2022-07-29T04:54:56.313Z,61.65
2022-07-29T04:57:58.044Z,61.89
2022-07-29T05:01:00.618Z,61.33
2022-07-29T05:04:02.588Z,60.62
2022-07-29T05:07:05.292Z,59.93
2022-07-29T05:10:07.367Z,59.34
2022-07-29T05:13:09.232Z,59.35
2022-07-29T05:16:11.209Z,58.52
2022-07-29T05:19:14.693Z,59.55
2022-07-29T05:22:16.563Z,59.12
2022-07-29T05:25:44.396Z,58.70
2022-07-29T05:28:46.815Z,58.57
2022-07-29T05:31:48.632Z,58.00
2022-07-29T05:34:51.815Z,56.79
2022-07-29T05:37:53.988Z,56.99
2022-07-29T05:40:58.573Z,55.99
2022-07-29T05:44:00.551Z,56.78
2022-07-29T05:47:02.463Z,55.33
2022-07-29T05:50:05.613Z,55.86
2022-07-29T05:53:19.844Z,56.36
2022-07-29T05:56:22.584Z,55.70
2022-07-29T05:59:30.432Z,54.97
2022-07-29T06:02:32.528Z,54.13
2022-07-29T06:05:34.436Z,53.55
2022-07-29T06:08:37.556Z,53.39
2022-07-29T06:11:39.220Z,53.24
2022-07-29T06:14:41.189Z,52.57
2022-07-29T06:18:00.385Z,52.62
2022-07-29T06:21:09.724Z,53.00
2022-07-29T06:24:15.632Z,52.48
2022-07-29T06:27:17.598Z,52.42
2022-07-29T06:30:19.571Z,52.27
2022-07-29T06:33:21.566Z,51.46
2022-07-29T06:36:23.557Z,51.00
2022-07-29T06:39:26.905Z,51.20
2022-07-29T06:42:28.569Z,51.05
2022-07-29T06:45:30.444Z,50.91
2022-07-29T06:48:33.329Z,49.58
2022-07-29T06:51:35.255Z,49.59
2022-07-29T06:54:36.918Z,48.66
2022-07-29T06:57:38.838Z,49.59
2022-07-29T07:00:43.866Z,49.21
2022-07-29T07:03:46.709Z,48.75
2022-07-29T07:06:48.616Z,48.53
2022-07-29T07:09:50.518Z,48.50
2022-07-29T07:12:52.660Z,48.03
2022-07-29T07:15:54.674Z,48.35
2022-07-29T07:18:56.478Z,46.52
2022-07-29T07:21:58.280Z,46.40
2022-07-29T07:25:00.115Z,46.48
2022-07-29T07:28:05.197Z,46.59
2022-07-29T07:31:07.174Z,45.94
2022-07-29T07:34:09.226Z,45.81
2022-07-29T07:37:11.179Z,45.24
2022-07-29T07:40:13.915Z,46.24
2022-07-29T07:43:20.876Z,45.51
2022-07-29T07:46:23.151Z,44.33
2022-07-29T07:49:25.242Z,44.11
2022-07-29T07:52:27.287Z,44.00
2022-07-29T07:55:30.708Z,43.73
2022-07-29T07:58:37.313Z,43.34
2022-07-29T08:01:48.112Z,43.07
2022-07-29T08:04:57.671Z,42.02
2022-07-29T08:07:59.696Z,40.79
2022-07-29T08:11:06.931Z,40.02
2022-07-29T08:14:11.231Z,39.30
2022-07-29T08:17:15.806Z,37.28
2022-07-29T08:20:17.760Z,36.84
2022-07-29T08:23:20.197Z,35.92
2022-07-29T08:26:23.652Z,33.97
2022-07-29T08:29:25.554Z,33.57
2022-07-29T08:32:51.231Z,33.04
2022-07-29T08:35:51.584Z,32.81
2022-07-29T08:38:53.763Z,30.52
2022-07-29T08:41:57.285Z,30.32
2022-07-29T08:45:00.013Z,29.45
2022-07-29T08:48:01.987Z,27.64
2022-07-29T08:51:04.677Z,27.89
2022-07-29T08:54:09.226Z,28.26
2022-07-29T08:57:15.339Z,28.05
2022-07-29T09:00:19.241Z,27.63
2022-07-29T09:03:24.380Z,26.40
2022-07-29T09:06:32.423Z,25.74
2022-07-29T09:09:35.485Z,25.23
2022-07-29T09:12:38.200Z,23.28
2022-07-29T09:15:40.377Z,26.28
2022-07-29T09:18:44.549Z,26.81
2022-07-29T09:21:58.867Z,25.15
2022-07-29T09:25:00.899Z,23.09
2022-07-29T09:28:14.297Z,22.12
2022-07-29T09:31:16.256Z,21.77
2022-07-29T09:34:25.664Z,22.02
2022-07-29T09:37:29.622Z,21.35
2022-07-29T09:40:32.460Z,20.49
2022-07-29T09:43:35.440Z,20.29
2022-07-29T09:46:37.524Z,18.23
2022-07-29T09:50:00.585Z,18.17
2022-07-29T09:53:02.628Z,17.45
2022-07-29T09:56:07.557Z,17.91
2022-07-29T09:59:12.334Z,15.83
2022-07-29T10:02:20.298Z,16.40
2022-07-29T10:05:36.299Z,15.56
2022-07-29T10:08:42.794Z,15.88
2022-07-29T10:12:07.221Z,14.91
2022-07-29T10:15:09.301Z,13.18
2022-07-29T10:18:12.953Z,15.01
2022-07-29T10:21:35.022Z,14.29
2022-07-29T10:24:38.496Z,16.05
2022-07-29T10:27:40.953Z,14.19
2022-07-29T10:30:44.591Z,15.27
2022-07-29T10:34:06.037Z,14.19
2022-07-29T10:37:23.949Z,14.74
2022-07-29T10:41:10.606Z,15.69
2022-07-29T10:44:23.143Z,17.89
2022-07-29T10:47:27.182Z,18.92
2022-07-29T10:50:29.076Z,20.64
2022-07-29T10:53:48.926Z,20.21
2022-07-29T10:56:50.936Z,20.75
2022-07-29T11:00:09.896Z,21.54
2022-07-29T11:03:50.826Z,21.97
2022-07-29T11:07:06.962Z,21.48
2022-07-29T11:10:15.318Z,24.24
2022-07-29T11:13:49.018Z,23.74
2022-07-29T11:17:06.713Z,24.50
2022-07-29T11:20:41.414Z,24.66
2022-07-29T11:23:45.311Z,24.33
2022-07-29T11:27:40.749Z,24.34
2022-07-29T11:30:50.141Z,24.18
2022-07-29T11:33:55.752Z,25.33
2022-07-29T11:37:08.177Z,24.10
2022-07-29T11:40:13.490Z,24.93
2022-07-29T11:43:53.845Z,25.36
2022-07-29T11:46:55.774Z,25.92
2022-07-29T11:49:59.946Z,25.47
2022-07-29T11:53:08.791Z,24.85
2022-07-29T11:59:42.684Z,24.19
2022-07-29T12:02:48.529Z,24.51
2022-07-29T12:05:51.964Z,22.91
2022-07-29T12:08:53.947Z,23.69
2022-07-29T12:12:04.919Z,22.92
2022-07-29T12:15:25.084Z,23.24
2022-07-29T12:18:57.653Z,22.34
2022-07-29T12:22:02.217Z,22.63
2022-07-29T12:25:31.861Z,21.73
2022-07-29T12:28:28.586Z,22.51
2022-07-29T12:31:44.078Z,21.73
2022-07-29T12:34:54.500Z,21.70
2022-07-29T12:37:56.488Z,21.70
2022-07-29T12:40:58.755Z,21.35
2022-07-29T12:44:00.578Z,21.53
2022-07-29T12:47:05.931Z,22.01
2022-07-29T12:50:15.350Z,22.18
2022-07-29T12:53:17.755Z,20.34
2022-07-29T12:56:41.699Z,19.42
2022-07-29T12:59:42.645Z,19.24
2022-07-29T13:02:55.124Z,19.36
2022-07-29T13:05:59.224Z,18.17
2022-07-29T13:09:23.844Z,17.88
2022-07-29T13:12:25.657Z,17.39
2022-07-29T13:15:27.699Z,15.81
2022-07-29T13:18:37.055Z,14.65
2022-07-29T13:21:40.340Z,13.67
2022-07-29T13:24:55.751Z,11.87
2022-07-29T13:27:57.860Z,11.10
2022-07-29T13:30:59.823Z,11.22
2022-07-29T13:34:01.841Z,10.63
2022-07-29T13:37:03.761Z,12.08
2022-07-29T13:40:08.011Z,12.26
2022-07-29T13:43:13.295Z,11.45
2022-07-29T13:46:15.174Z,12.12
2022-07-29T13:49:17.225Z,11.28
2022-07-29T13:52:19.128Z,10.41
2022-07-29T13:55:20.897Z,10.65
2022-07-29T13:58:22.984Z,11.16
2022-07-29T14:01:25.652Z,9.74
2022-07-29T14:04:27.606Z,9.31
2022-07-29T14:07:29.384Z,9.24
2022-07-29T14:10:31.230Z,10.00
2022-07-29T14:13:33.212Z,10.98
2022-07-29T14:16:38.093Z,10.29
2022-07-29T14:19:44.054Z,10.46
2022-07-29T14:22:45.942Z,11.68
2022-07-29T14:25:49.543Z,10.75
2022-07-29T14:28:52.476Z,10.83
2022-07-29T14:31:54.383Z,9.41
2022-07-29T14:34:56.084Z,11.58
2022-07-29T14:37:58.446Z,10.83
2022-07-29T14:41:00.186Z,11.97
2022-07-29T14:44:02.694Z,13.78
2022-07-29T14:47:07.684Z,15.65
2022-07-29T14:50:10.848Z,17.30
2022-07-29T14:53:14.147Z,20.03
2022-07-29T14:56:35.977Z,21.12
2022-07-29T14:59:37.858Z,21.15
2022-07-29T15:03:00.517Z,22.15
2022-07-29T15:06:01.581Z,23.31
2022-07-29T15:09:03.670Z,27.09
2022-07-29T15:12:05.992Z,26.84
2022-07-29T15:15:08.487Z,27.96
2022-07-29T15:18:10.438Z,25.22
2022-07-29T15:21:12.432Z,24.66
2022-07-29T15:24:14.355Z,24.75
2022-07-29T15:27:16.146Z,24.17
2022-07-29T15:30:33.517Z,24.82
2022-07-29T15:33:37.232Z,23.23
2022-07-29T15:36:54.581Z,24.47
2022-07-29T15:40:00.019Z,23.46
2022-07-29T15:43:06.772Z,23.65
2022-07-29T15:46:27.627Z,24.00
2022-07-29T15:49:46.639Z,24.16
2022-07-29T15:52:50.766Z,24.45
2022-07-29T15:55:52.850Z,24.09
2022-07-29T15:58:54.814Z,24.96
2022-07-29T16:01:57.072Z,24.53
2022-07-29T16:04:59.983Z,24.28
2022-07-29T16:08:01.774Z,24.56
2022-07-29T16:11:03.636Z,24.63
2022-07-29T16:14:06.050Z,25.07
2022-07-29T16:17:14.465Z,25.48
2022-07-29T16:20:17.284Z,25.66
2022-07-29T16:23:18.973Z,25.52
2022-07-29T16:26:20.994Z,25.66
2022-07-29T16:29:22.858Z,25.77
2022-07-29T16:32:24.860Z,25.57
2022-07-29T16:35:39.218Z,26.26
2022-07-29T16:38:46.989Z,26.68
2022-07-29T16:41:50.589Z,26.51
2022-07-29T16:44:52.506Z,26.99
2022-07-29T16:48:00.225Z,27.39
2022-07-29T16:51:04.975Z,27.65
2022-07-29T16:54:08.954Z,28.04
2022-07-29T16:57:11.876Z,27.68
2022-07-29T17:00:15.514Z,27.94
2022-07-29T17:03:17.172Z,30.26
2022-07-29T17:06:19.059Z,27.94
2022-07-29T17:09:21.192Z,27.54
2022-07-29T17:12:23.146Z,32.69
2022-07-29T17:15:24.859Z,34.39
2022-07-29T17:18:26.804Z,34.27
2022-07-29T17:21:28.652Z,36.15
2022-07-29T17:24:30.824Z,37.37
2022-07-29T17:27:33.141Z,36.15
2022-07-29T17:30:35.088Z,37.46
2022-07-29T17:33:37.088Z,37.77
2022-07-29T17:36:39.041Z,37.13
2022-07-29T17:39:42.773Z,33.37
2022-07-29T17:42:44.643Z,31.87
2022-07-29T17:45:49.949Z,31.09
2022-07-29T17:48:53.508Z,31.37
2022-07-29T17:51:59.038Z,31.16
2022-07-29T17:55:02.727Z,31.90
2022-07-29T17:58:09.031Z,31.38
2022-07-29T18:01:10.977Z,31.54
2022-07-29T18:04:13.116Z,31.69
2022-07-29T18:07:15.007Z,31.41
2022-07-29T18:10:16.901Z,33.04
2022-07-29T18:13:19.319Z,36.65
2022-07-29T18:16:21.153Z,36.73
2022-07-29T18:19:25.138Z,36.08
2022-07-29T18:22:27.091Z,37.59
2022-07-29T18:25:29.674Z,37.47
2022-07-29T18:28:32.820Z,36.91
2022-07-29T18:31:34.730Z,36.58
2022-07-29T18:34:36.571Z,34.13
2022-07-29T18:38:02.069Z,33.66
2022-07-29T18:41:00.714Z,32.94
2022-07-29T18:44:02.670Z,33.68
2022-07-29T18:47:06.645Z,35.91
2022-07-29T18:50:13.583Z,37.64
2022-07-29T18:53:15.554Z,38.90
2022-07-29T18:56:17.479Z,39.41
2022-07-29T18:59:21.753Z,40.49
2022-07-29T19:02:23.866Z,41.95
2022-07-29T19:05:28.918Z,42.60
2022-07-29T19:08:31.778Z,43.32
2022-07-29T19:11:33.671Z,43.82
2022-07-29T19:14:35.784Z,44.52
2022-07-29T19:17:38.874Z,44.77
2022-07-29T19:20:42.051Z,45.43
2022-07-29T19:24:05.821Z,45.89
2022-07-29T19:27:06.006Z,46.49
2022-07-29T19:30:09.559Z,46.66
2022-07-29T19:33:12.966Z,47.03
2022-07-29T19:36:15.046Z,47.25
2022-07-29T19:39:17.986Z,47.46
2022-07-29T19:42:35.270Z,47.75
2022-07-29T19:45:37.287Z,48.17
2022-07-29T19:48:39.260Z,48.57
2022-07-29T19:51:41.764Z,48.87
2022-07-29T19:54:43.466Z,49.01
2022-07-29T19:57:49.132Z,49.26
2022-07-29T20:00:51.223Z,49.76
2022-07-29T20:03:54.160Z,49.28
2022-07-29T20:07:01.713Z,49.62
2022-07-29T20:10:05.341Z,50.10
2022-07-29T20:13:07.356Z,50.06
2022-07-29T20:16:09.431Z,50.17
2022-07-29T20:19:12.128Z,50.36
2022-07-29T20:22:14.681Z,50.38
2022-07-29T20:25:23.973Z,50.78
2022-07-29T20:28:25.951Z,50.73
2022-07-29T20:31:28.081Z,50.53
2022-07-29T20:34:30.080Z,50.88
2022-07-29T20:37:32.814Z,50.95
2022-07-29T20:40:55.799Z,51.34
2022-07-29T20:43:57.463Z,51.29
2022-07-29T20:46:59.576Z,51.74
2022-07-29T20:50:01.392Z,51.95
2022-07-29T20:53:04.199Z,52.43
2022-07-29T20:56:10.152Z,52.19
2022-07-29T21:02:28.035Z,53.09
2022-07-29T21:05:30.240Z,52.79
2022-07-29T21:08:32.402Z,56.36
2022-07-29T21:11:44.038Z,57.24
2022-07-29T21:14:48.214Z,61.99
2022-07-29T21:17:52.273Z,60.15
2022-07-29T21:20:55.346Z,54.85
2022-07-29T21:23:57.392Z,54.66
2022-07-29T21:27:21.035Z,59.48
2022-07-29T21:30:23.369Z,58.57
2022-07-29T21:33:28.197Z,59.22
2022-07-29T21:39:51.890Z,60.59
2022-07-29T21:42:54.774Z,62.68
2022-07-29T21:45:57.912Z,63.66
2022-07-29T21:48:59.849Z,62.34
2022-07-29T21:52:01.796Z,64.49
2022-07-29T21:55:03.724Z,61.41
2022-07-29T21:58:06.372Z,58.27
2022-07-29T22:01:08.421Z,57.54
2022-07-29T22:04:10.311Z,57.57
2022-07-29T22:07:12.379Z,57.54
2022-07-29T22:10:15.977Z,58.23
2022-07-29T22:13:17.675Z,57.78
2022-07-29T22:16:20.674Z,57.93
2022-07-29T22:19:22.403Z,57.80
2022-07-29T22:22:29.267Z,59.85
2022-07-29T22:25:31.357Z,60.45
2022-07-29T22:28:33.455Z,63.01
2022-07-29T22:31:35.451Z,62.75
2022-07-29T22:34:37.997Z,62.58
2022-07-29T22:37:44.080Z,63.15
2022-07-29T22:40:47.002Z,64.27
2022-07-29T22:43:51.455Z,62.50
2022-07-29T22:47:00.677Z,62.19
2022-07-29T22:50:02.800Z,64.42
2022-07-29T22:53:04.675Z,63.42
2022-07-29T22:56:06.604Z,61.92
2022-07-29T22:59:08.614Z,63.30
2022-07-29T23:02:10.565Z,62.37
2022-07-29T23:05:12.621Z,58.89
2022-07-29T23:08:14.660Z,58.65
2022-07-29T23:11:16.951Z,57.56
2022-07-29T23:14:18.999Z,56.84
2022-07-29T23:17:21.011Z,56.52
2022-07-29T23:20:22.915Z,54.83
2022-07-29T23:23:24.863Z,54.93
2022-07-29T23:26:30.313Z,54.39
2022-07-29T23:29:36.648Z,54.07
2022-07-29T23:32:39.179Z,54.55
2022-07-29T23:35:41.115Z,54.12
2022-07-29T23:38:42.891Z,53.82
2022-07-29T23:41:44.819Z,54.08
2022-07-29T23:44:46.626Z,55.05
2022-07-29T23:47:48.640Z,55.20
2022-07-29T23:50:50.592Z,55.09
2022-07-29T23:53:54.411Z,56.19
2022-07-29T23:56:57.917Z,55.75
